Time;durP1;ratioP1;P1;durP2;ratioP2;P2;SDS_P1;SDS_P2;PMS_P1;PMS_P2;Temp;Humidity;BMP_temperature;BMP_pressure;BME280_temperature;BME280_humidity;BME280_pressure;Samples;Min_cycle;Max_cycle;Signal;HPM_P1;HPM_P2
2023/06/28 00:01:09;;;;;;;1.40;0.90;;;22.70;51.80;;;;;;4938440;29;20058;-71
2023/06/28 00:03:35;;;;;;;1.17;1.08;;;22.70;51.90;;;;;;4954334;29;20054;-73
2023/06/28 00:06:01;;;;;;;1.08;0.82;;;22.60;51.90;;;;;;4938066;29;20031;-73
2023/06/28 00:08:27;;;;;;;1.52;1.00;;;22.60;51.90;;;;;;4954008;29;20122;-71
2023/06/28 00:10:53;;;;;;;1.05;0.90;;;22.60;51.90;;;;;;4953883;29;20074;-71
2023/06/28 00:13:18;;;;;;;1.25;1.10;;;22.50;51.90;;;;;;4954523;29;20042;-71
2023/06/28 00:15:45;;;;;;;2.35;1.05;;;22.50;51.90;;;;;;4955336;28;20023;-73
2023/06/28 00:18:11;;;;;;;2.03;1.10;;;22.50;52.00;;;;;;4954103;29;20087;-71
2023/06/28 00:20:38;;;;;;;2.08;1.02;;;22.50;52.00;;;;;;4954948;28;20175;-71
2023/06/28 00:23:05;;;;;;;1.83;1.00;;;22.50;52.10;;;;;;4939036;28;20407;-72
2023/06/28 00:25:31;;;;;;;2.00;0.90;;;22.40;52.10;;;;;;4938823;28;20043;-71
2023/06/28 00:27:56;;;;;;;1.45;0.85;;;22.40;52.10;;;;;;4953983;29;20123;-71
2023/06/28 00:30:22;;;;;;;1.83;0.95;;;22.40;52.10;;;;;;4953979;29;20472;-71
2023/06/28 00:32:48;;;;;;;1.27;1.10;;;22.40;52.20;;;;;;4937913;29;20126;-72
2023/06/28 00:35:14;;;;;;;1.30;1.00;;;22.30;52.20;;;;;;4955410;28;20043;-72
2023/06/28 00:37:41;;;;;;;2.08;1.10;;;22.30;52.20;;;;;;4953311;29;20079;-71
2023/06/28 00:40:08;;;;;;;1.42;0.90;;;22.30;52.20;;;;;;4954131;29;20416;-73
2023/06/28 00:42:34;;;;;;;1.42;0.80;;;22.30;52.30;;;;;;4954459;29;20464;-72
2023/06/28 00:45:00;;;;;;;2.17;1.00;;;22.30;52.30;;;;;;4953938;29;20034;-71
2023/06/28 00:47:28;;;;;;;1.13;1.00;;;22.20;52.40;;;;;;4955111;28;20042;-72
2023/06/28 00:49:55;;;;;;;1.33;0.90;;;22.20;52.40;;;;;;4937535;28;20039;-72
2023/06/28 00:52:21;;;;;;;1.33;0.90;;;22.20;52.40;;;;;;4953876;29;20038;-71
2023/06/28 00:54:47;;;;;;;1.25;0.90;;;22.10;52.40;;;;;;4937737;29;20051;-73
2023/06/28 00:57:14;;;;;;;1.38;1.00;;;22.20;52.50;;;;;;4955437;28;20031;-72
2023/06/28 00:59:41;;;;;;;1.95;1.10;;;22.10;52.50;;;;;;4937815;29;20039;-73
2023/06/28 01:02:07;;;;;;;1.50;1.02;;;22.10;52.50;;;;;;4956892;28;20038;-71
2023/06/28 01:04:36;;;;;;;1.45;0.88;;;22.10;52.60;;;;;;4941560;28;20082;-73
2023/06/28 01:07:03;;;;;;;1.25;0.90;;;22.00;52.60;;;;;;4957184;29;20027;-72
2023/06/28 01:09:32;;;;;;;1.15;0.93;;;22.00;52.70;;;;;;4941858;29;20134;-73
2023/06/28 01:11:59;;;;;;;1.95;1.30;;;22.00;52.80;;;;;;4941975;29;20035;-71
2023/06/28 01:14:27;;;;;;;1.17;1.00;;;22.00;52.80;;;;;;4958476;28;20030;-71
2023/06/28 01:16:56;;;;;;;1.00;0.90;;;22.00;52.80;;;;;;4957181;29;20038;-73
2023/06/28 01:19:23;;;;;;;1.13;0.80;;;22.00;52.80;;;;;;4956998;29;20358;-72
2023/06/28 01:21:51;;;;;;;1.52;1.00;;;21.90;52.80;;;;;;4957416;29;20404;-72
2023/06/28 01:24:21;;;;;;;2.63;1.30;;;21.90;52.90;;;;;;4958345;28;20031;-73
2023/06/28 01:26:52;;;;;;;1.02;0.82;;;21.90;52.90;;;;;;4959030;28;20090;-72
2023/06/28 01:29:24;;;;;;;0.98;0.88;;;21.90;52.90;;;;;;4926898;29;20046;-71
2023/06/28 01:31:56;;;;;;;1.42;1.00;;;21.90;53.00;;;;;;4957171;29;20481;-72
2023/06/28 01:34:24;;;;;;;1.10;1.00;;;21.90;53.00;;;;;;4958130;28;20066;-73
2023/06/28 01:36:54;;;;;;;1.10;0.85;;;21.90;53.00;;;;;;4956575;28;20070;-71
2023/06/28 01:39:21;;;;;;;1.85;1.00;;;21.80;53.00;;;;;;4958416;28;20103;-72
2023/06/28 01:41:48;;;;;;;1.00;0.90;;;21.80;53.10;;;;;;4956645;28;20062;-71
2023/06/28 01:44:14;;;;;;;1.25;1.00;;;21.80;53.10;;;;;;4956822;29;20499;-73
2023/06/28 01:46:40;;;;;;;2.10;1.00;;;21.80;53.20;;;;;;4958117;28;20023;-72
2023/06/28 01:49:07;;;;;;;0.70;0.63;;;21.80;53.30;;;;;;4940127;28;20078;-71
2023/06/28 01:51:36;;;;;;;2.53;1.10;;;21.80;53.30;;;;;;4956664;29;20035;-70
2023/06/28 01:54:03;;;;;;;1.88;0.90;;;21.70;53.30;;;;;;4940372;28;20457;-71
2023/06/28 01:56:29;;;;;;;1.67;1.10;;;21.70;53.40;;;;;;4940428;28;20027;-71
2023/06/28 01:58:55;;;;;;;1.27;1.00;;;21.70;53.40;;;;;;4941130;29;20039;-71
2023/06/28 02:01:21;;;;;;;2.17;0.95;;;21.70;53.40;;;;;;4941246;28;20135;-71
2023/06/28 02:03:47;;;;;;;1.13;1.00;;;21.60;53.40;;;;;;4957159;29;20365;-71
2023/06/28 02:06:14;;;;;;;1.35;1.02;;;21.70;53.60;;;;;;4940321;29;20408;-71
2023/06/28 02:08:40;;;;;;;1.17;0.82;;;21.60;53.60;;;;;;4957242;28;20046;-71
2023/06/28 02:11:06;;;;;;;1.60;1.10;;;21.60;53.60;;;;;;4940146;29;20480;-71
2023/06/28 02:13:31;;;;;;;2.20;1.05;;;21.60;53.60;;;;;;4955303;28;20074;-72
2023/06/28 02:15:58;;;;;;;1.88;1.00;;;21.60;53.70;;;;;;4957024;29;20034;-73
2023/06/28 02:18:26;;;;;;;2.13;1.10;;;21.60;53.70;;;;;;4956006;29;20071;-71
2023/06/28 02:20:52;;;;;;;1.67;1.00;;;21.60;53.70;;;;;;4955920;29;20039;-72
2023/06/28 02:23:19;;;;;;;0.93;0.80;;;21.50;53.70;;;;;;4955902;28;20027;-73
2023/06/28 02:25:45;;;;;;;1.65;0.90;;;21.60;53.80;;;;;;4957203;28;20086;-73
2023/06/28 02:28:11;;;;;;;1.10;0.88;;;21.50;53.80;;;;;;4956093;28;20035;-71
2023/06/28 02:30:37;;;;;;;1.73;1.10;;;21.50;53.90;;;;;;4939811;29;20043;-71
2023/06/28 02:33:03;;;;;;;1.65;0.95;;;21.50;53.90;;;;;;4955910;29;20035;-71
2023/06/28 02:35:28;;;;;;;1.67;1.00;;;21.50;54.00;;;;;;4956063;29;20027;-73
2023/06/28 02:37:54;;;;;;;1.73;0.80;;;21.40;54.00;;;;;;4955463;29;20051;-74
2023/06/28 02:40:21;;;;;;;1.98;0.88;;;21.50;54.00;;;;;;4939543;29;20074;-71
2023/06/28 02:42:47;;;;;;;0.80;0.80;;;21.50;54.10;;;;;;4956930;28;20070;-71
2023/06/28 02:45:12;;;;;;;1.25;1.00;;;21.40;54.10;;;;;;4939583;29;20448;-73
2023/06/28 02:47:38;;;;;;;1.80;1.00;;;21.40;54.10;;;;;;4940384;29;20122;-71
2023/06/28 02:50:06;;;;;;;0.90;0.80;;;21.40;54.20;;;;;;4939797;29;20042;-71
2023/06/28 02:52:36;;;;;;;1.67;0.90;;;21.40;54.20;;;;;;4955776;29;20082;-71
2023/06/28 02:55:07;;;;;;;1.60;0.98;;;21.40;54.30;;;;;;4955582;29;20039;-71
2023/06/28 02:57:33;;;;;;;2.60;1.15;;;21.40;54.30;;;;;;4955316;28;20039;-71
2023/06/28 03:00:08;;;;;;;1.10;1.00;;;21.40;54.40;;;;;;4955933;29;20047;-71
2023/06/28 03:02:34;;;;;;;1.33;0.80;;;21.30;54.40;;;;;;4955153;29;20118;-71
2023/06/28 03:05:00;;;;;;;1.10;0.85;;;21.30;54.50;;;;;;4940090;29;20469;-71
2023/06/28 03:07:26;;;;;;;1.42;0.82;;;21.30;54.60;;;;;;4939186;29;20392;-71
2023/06/28 03:09:52;;;;;;;2.95;1.27;;;21.30;54.60;;;;;;4955801;29;20043;-71
2023/06/28 03:12:17;;;;;;;1.00;0.82;;;21.20;54.60;;;;;;4939009;28;20206;-72
2023/06/28 03:14:44;;;;;;;1.60;0.95;;;21.20;54.60;;;;;;4939286;29;20040;-72
2023/06/28 03:17:10;;;;;;;1.25;0.90;;;21.20;54.60;;;;;;4955215;29;20031;-71
2023/06/28 03:19:36;;;;;;;1.20;0.80;;;21.20;54.70;;;;;;4954866;29;20090;-71
2023/06/28 03:22:03;;;;;;;0.88;0.82;;;21.20;54.80;;;;;;4954858;29;20428;-72
2023/06/28 03:24:29;;;;;;;0.90;0.90;;;21.20;54.90;;;;;;4938954;28;20039;-72
2023/06/28 03:26:55;;;;;;;1.73;0.85;;;21.20;54.90;;;;;;4954640;29;20499;-72
2023/06/28 03:29:22;;;;;;;1.02;0.90;;;21.10;54.90;;;;;;4938963;28;20120;-71
2023/06/28 03:31:48;;;;;;;1.00;0.93;;;21.10;55.00;;;;;;4939671;29;20039;-72
2023/06/28 03:34:16;;;;;;;1.20;1.08;;;21.10;55.00;;;;;;4938977;29;20035;-72
2023/06/28 03:36:43;;;;;;;1.27;1.00;;;21.10;55.10;;;;;;4938936;28;20109;-71
2023/06/28 03:39:09;;;;;;;2.65;1.10;;;21.10;55.10;;;;;;4954480;29;20035;-72
2023/06/28 03:41:35;;;;;;;2.35;1.08;;;21.10;55.20;;;;;;4954540;29;20046;-72
2023/06/28 03:44:01;;;;;;;1.55;1.00;;;21.10;55.30;;;;;;4954499;29;20547;-72
2023/06/28 03:46:27;;;;;;;1.88;1.30;;;21.00;55.30;;;;;;4954493;29;20051;-72
2023/06/28 03:48:53;;;;;;;0.80;0.80;;;21.00;55.30;;;;;;4954280;29;20070;-73
2023/06/28 03:51:19;;;;;;;1.80;1.15;;;21.00;55.40;;;;;;4938251;29;20058;-73
2023/06/28 03:53:45;;;;;;;2.13;1.20;;;21.00;55.40;;;;;;4954192;29;20031;-72
2023/06/28 03:56:10;;;;;;;2.00;1.17;;;21.00;55.50;;;;;;4955899;28;20615;-73
2023/06/28 03:58:36;;;;;;;1.45;0.90;;;21.00;55.50;;;;;;4938344;29;20031;-74
2023/06/28 04:01:02;;;;;;;1.63;1.20;;;21.00;55.60;;;;;;4938107;29;20495;-75
2023/06/28 04:03:28;;;;;;;2.20;1.10;;;21.00;55.60;;;;;;4938078;28;20023;-74
2023/06/28 04:05:54;;;;;;;1.50;0.90;;;20.90;55.60;;;;;;4955650;28;20183;-73
2023/06/28 04:08:19;;;;;;;1.95;1.10;;;20.90;55.70;;;;;;4955152;28;20034;-73
2023/06/28 04:10:45;;;;;;;1.15;1.05;;;20.90;55.70;;;;;;4954528;29;20027;-73
2023/06/28 04:13:11;;;;;;;1.10;0.98;;;20.90;55.70;;;;;;4953874;29;20031;-73
2023/06/28 04:15:37;;;;;;;1.10;1.00;;;20.90;55.80;;;;;;4939252;28;20461;-73
2023/06/28 04:18:03;;;;;;;1.10;1.00;;;20.90;55.80;;;;;;4955117;28;20034;-71
2023/06/28 04:20:28;;;;;;;0.98;0.88;;;20.90;55.80;;;;;;4954471;28;20035;-73
2023/06/28 04:22:54;;;;;;;1.35;1.00;;;20.90;55.90;;;;;;4937866;29;20093;-73
2023/06/28 04:25:20;;;;;;;2.20;1.30;;;20.80;55.90;;;;;;4955236;28;20035;-73
2023/06/28 04:27:46;;;;;;;2.05;1.10;;;20.90;56.00;;;;;;4937902;29;20114;-73
2023/06/28 04:30:11;;;;;;;1.55;1.05;;;20.80;55.90;;;;;;4938716;29;20129;-73
2023/06/28 04:32:37;;;;;;;1.20;1.10;;;20.80;56.00;;;;;;4954569;29;20106;-74
2023/06/28 04:35:03;;;;;;;0.88;0.88;;;20.80;56.10;;;;;;4937808;29;20087;-75
2023/06/28 04:37:31;;;;;;;2.03;1.33;;;20.80;56.10;;;;;;4958627;28;20051;-74
2023/06/28 04:40:03;;;;;;;1.45;1.00;;;20.80;56.20;;;;;;4958666;29;20039;-73
2023/06/28 04:42:29;;;;;;;1.73;1.05;;;20.80;56.30;;;;;;4942105;29;20039;-73
2023/06/28 04:44:59;;;;;;;1.60;1.05;;;20.80;56.20;;;;;;4957290;29;20042;-73
2023/06/28 04:47:26;;;;;;;1.42;1.10;;;20.80;56.30;;;;;;4957828;29;20620;-74
2023/06/28 04:49:52;;;;;;;0.95;0.88;;;20.70;56.30;;;;;;4957926;29;20039;-75
2023/06/28 04:52:19;;;;;;;1.23;0.93;;;20.70;56.30;;;;;;4957348;29;20395;-74
2023/06/28 04:54:49;;;;;;;1.52;1.08;;;20.70;56.40;;;;;;4958423;28;20066;-76
2023/06/28 04:57:17;;;;;;;1.45;1.05;;;20.70;56.40;;;;;;4958195;28;20038;-74
2023/06/28 04:59:43;;;;;;;1.10;1.00;;;20.70;56.40;;;;;;4941301;29;20484;-73
2023/06/28 05:02:09;;;;;;;1.10;1.08;;;20.70;56.50;;;;;;4958801;28;20035;-74
2023/06/28 05:04:37;;;;;;;1.50;1.30;;;20.70;56.50;;;;;;4958163;28;20027;-74
2023/06/28 05:07:09;;;;;;;1.58;1.17;;;20.70;56.60;;;;;;4957286;28;20031;-73
2023/06/28 05:09:36;;;;;;;2.38;1.20;;;20.70;56.60;;;;;;4958587;28;20476;-74
2023/06/28 05:12:03;;;;;;;1.48;1.20;;;20.60;56.60;;;;;;4957283;28;20016;-74
2023/06/28 05:14:30;;;;;;;2.13;1.20;;;20.60;56.60;;;;;;4941243;29;20118;-73
2023/06/28 05:16:56;;;;;;;1.33;1.02;;;20.60;56.60;;;;;;4941976;29;20058;-74
2023/06/28 05:19:23;;;;;;;1.38;1.10;;;20.60;56.60;;;;;;4958243;28;20460;-73
2023/06/28 05:21:49;;;;;;;1.52;1.20;;;20.60;56.70;;;;;;4957075;29;20059;-73
2023/06/28 05:24:19;;;;;;;1.80;1.23;;;20.60;56.70;;;;;;4957272;29;20070;-74
2023/06/28 05:26:45;;;;;;;2.03;1.20;;;20.60;56.80;;;;;;4957310;29;20047;-74
2023/06/28 05:29:11;;;;;;;1.58;1.42;;;20.60;56.80;;;;;;4956580;29;20031;-74
2023/06/28 05:31:37;;;;;;;1.70;1.10;;;20.50;56.80;;;;;;4956949;29;20034;-74
2023/06/28 05:34:04;;;;;;;2.05;1.25;;;20.50;56.80;;;;;;4940956;29;20035;-74
2023/06/28 05:36:31;;;;;;;1.30;1.20;;;20.60;56.90;;;;;;4957740;28;20090;-74
2023/06/28 05:38:56;;;;;;;2.00;1.20;;;20.60;56.90;;;;;;4958361;28;20515;-74
2023/06/28 05:41:22;;;;;;;1.73;1.35;;;20.50;56.90;;;;;;4956757;29;20051;-73
2023/06/28 05:43:48;;;;;;;1.75;1.35;;;20.50;56.90;;;;;;4941463;28;20450;-75
2023/06/28 05:46:14;;;;;;;1.23;0.93;;;20.50;56.90;;;;;;4957611;28;20061;-74
2023/06/28 05:48:40;;;;;;;1.17;0.90;;;20.50;57.00;;;;;;4957190;28;20031;-73
2023/06/28 05:51:12;;;;;;;1.45;1.30;;;20.50;57.00;;;;;;4956075;29;20039;-74
2023/06/28 05:53:39;;;;;;;2.00;1.30;;;20.50;57.10;;;;;;4956464;29;20031;-73
2023/06/28 05:56:07;;;;;;;1.30;1.20;;;20.50;57.10;;;;;;4956660;28;20066;-76
2023/06/28 05:58:33;;;;;;;2.03;1.30;;;20.50;57.10;;;;;;4957295;28;20476;-76
2023/06/28 06:01:00;;;;;;;1.20;1.10;;;20.50;57.20;;;;;;4956216;29;20047;-74
2023/06/28 06:03:26;;;;;;;2.47;1.42;;;20.50;57.20;;;;;;4957239;28;20163;-76
2023/06/28 06:05:53;;;;;;;1.55;1.30;;;20.50;57.20;;;;;;4957340;28;20032;-75
2023/06/28 06:08:19;;;;;;;1.52;1.25;;;20.50;57.30;;;;;;4956554;29;20122;-75
2023/06/28 06:10:45;;;;;;;2.00;1.45;;;20.50;57.20;;;;;;4940074;29;20114;-75
2023/06/28 06:13:11;;;;;;;1.90;1.30;;;20.50;57.30;;;;;;4957725;28;20067;-75
2023/06/28 06:15:38;;;;;;;3.30;1.27;;;20.40;57.30;;;;;;4955920;29;20042;-75
2023/06/28 06:18:04;;;;;;;1.67;1.35;;;20.50;57.30;;;;;;4940097;29;20031;-75
2023/06/28 06:20:31;;;;;;;1.83;1.45;;;20.50;57.30;;;;;;4955576;28;20035;-75
2023/06/28 06:22:57;;;;;;;1.98;1.42;;;20.50;57.40;;;;;;4955945;29;20035;-75
2023/06/28 06:25:23;;;;;;;1.73;1.17;;;20.50;57.40;;;;;;4957435;28;20468;-75
2023/06/28 06:27:48;;;;;;;2.55;1.30;;;20.40;57.40;;;;;;4940168;29;20048;-75
2023/06/28 06:30:14;;;;;;;1.52;1.27;;;20.50;57.40;;;;;;4955705;29;20043;-74
2023/06/28 06:32:40;;;;;;;2.65;1.45;;;20.40;57.40;;;;;;4957135;28;20431;-74
2023/06/28 06:35:06;;;;;;;1.88;1.27;;;20.40;57.40;;;;;;4955618;29;20042;-73
2023/06/28 06:37:32;;;;;;;2.17;1.42;;;20.40;57.50;;;;;;4955602;29;20055;-75
2023/06/28 06:39:58;;;;;;;2.38;1.50;;;20.40;57.50;;;;;;4956139;29;20035;-73
2023/06/28 06:42:24;;;;;;;4.88;1.40;;;20.40;57.50;;;;;;4957142;28;20467;-73
2023/06/28 06:44:50;;;;;;;2.55;1.65;;;20.40;57.50;;;;;;4940479;29;20031;-74
2023/06/28 06:47:16;;;;;;;1.58;1.30;;;20.40;57.50;;;;;;4955662;29;20046;-74
2023/06/28 06:49:42;;;;;;;1.80;1.30;;;20.40;57.50;;;;;;4957077;28;20491;-75
2023/06/28 06:52:08;;;;;;;1.38;1.20;;;20.40;57.60;;;;;;4955301;29;20117;-74
2023/06/28 06:54:33;;;;;;;1.50;1.35;;;20.40;57.60;;;;;;4955363;29;20042;-75
2023/06/28 06:56:59;;;;;;;2.40;1.52;;;20.40;57.60;;;;;;4939575;28;20042;-74
2023/06/28 06:59:26;;;;;;;1.45;1.20;;;20.40;57.60;;;;;;4939761;29;20043;-74
2023/06/28 07:01:53;;;;;;;1.90;1.50;;;20.40;57.70;;;;;;4955620;29;20066;-75
2023/06/28 07:04:21;;;;;;;1.83;1.40;;;20.40;57.70;;;;;;4956114;28;20023;-76
2023/06/28 07:06:47;;;;;;;2.42;1.50;;;20.40;57.70;;;;;;4955261;28;20059;-75
2023/06/28 07:09:17;;;;;;;2.47;1.50;;;20.40;57.70;;;;;;4956087;28;20035;-75
2023/06/28 07:11:44;;;;;;;2.10;1.67;;;20.40;57.80;;;;;;4956333;28;20034;-73
2023/06/28 07:14:10;;;;;;;1.70;1.40;;;20.40;57.70;;;;;;4955873;28;20081;-73
2023/06/28 07:16:36;;;;;;;2.83;1.58;;;20.40;57.70;;;;;;4954656;29;20504;-75
2023/06/28 07:19:02;;;;;;;2.75;1.50;;;20.40;57.80;;;;;;4939044;29;20480;-74
2023/06/28 07:21:28;;;;;;;2.67;1.70;;;20.40;57.80;;;;;;4938971;29;20051;-74
2023/06/28 07:23:55;;;;;;;2.22;1.52;;;20.40;57.80;;;;;;4939388;29;20122;-74
2023/06/28 07:26:21;;;;;;;3.78;1.90;;;20.40;57.90;;;;;;4938561;29;20082;-74
2023/06/28 07:28:47;;;;;;;2.90;1.70;;;20.40;57.90;;;;;;4956340;28;20031;-74
2023/06/28 07:31:13;;;;;;;2.25;1.60;;;20.40;58.00;;;;;;4956212;28;20066;-74
2023/06/28 07:33:42;;;;;;;2.25;1.77;;;20.40;57.90;;;;;;4954827;29;20043;-74
2023/06/28 07:36:08;;;;;;;2.45;1.40;;;20.40;58.10;;;;;;4954682;29;20042;-74
2023/06/28 07:38:34;;;;;;;1.70;1.45;;;20.40;58.00;;;;;;4956077;28;20080;-74
2023/06/28 07:41:00;;;;;;;2.67;1.70;;;20.40;58.00;;;;;;4954691;29;20036;-74
2023/06/28 07:43:26;;;;;;;1.80;1.55;;;20.40;58.00;;;;;;4954378;29;20043;-74
2023/06/28 07:45:52;;;;;;;3.10;1.60;;;20.40;58.00;;;;;;4954488;29;20039;-74
2023/06/28 07:48:18;;;;;;;3.63;1.65;;;20.50;58.10;;;;;;4938822;28;20452;-74
2023/06/28 07:50:45;;;;;;;2.85;1.42;;;20.40;58.10;;;;;;4954742;29;20075;-74
2023/06/28 07:53:11;;;;;;;4.00;1.70;;;20.40;58.10;;;;;;4955666;28;20090;-73
2023/06/28 07:55:36;;;;;;;2.15;1.60;;;20.50;58.10;;;;;;4938856;29;20083;-74
2023/06/28 07:58:02;;;;;;;2.53;1.80;;;20.50;58.20;;;;;;4938500;29;20035;-74
2023/06/28 08:00:31;;;;;;;2.60;1.67;;;20.40;58.10;;;;;;4955265;28;20122;-74
2023/06/28 08:02:58;;;;;;;2.47;1.70;;;20.40;58.20;;;;;;4955782;28;20130;-74
2023/06/28 08:05:24;;;;;;;2.80;1.70;;;20.50;58.30;;;;;;4938570;29;20063;-74
2023/06/28 08:07:52;;;;;;;2.42;1.60;;;20.40;58.20;;;;;;4938101;29;20032;-74
2023/06/28 08:10:17;;;;;;;2.30;1.63;;;20.50;58.30;;;;;;4955001;28;20476;-74
2023/06/28 08:12:43;;;;;;;2.80;1.52;;;20.50;58.30;;;;;;4937873;29;20039;-74
2023/06/28 08:15:09;;;;;;;2.05;1.60;;;20.50;58.30;;;;;;4954542;29;20038;-74
2023/06/28 08:17:35;;;;;;;2.78;1.88;;;20.50;58.30;;;;;;4955370;28;20035;-74
2023/06/28 08:20:01;;;;;;;4.18;1.88;;;20.50;58.30;;;;;;4954360;28;20539;-74
2023/06/28 08:22:26;;;;;;;2.78;1.83;;;20.50;58.30;;;;;;4955488;28;20132;-75
2023/06/28 08:24:52;;;;;;;2.33;1.75;;;20.50;58.30;;;;;;4954891;28;20365;-73
2023/06/28 08:27:18;;;;;;;2.42;1.70;;;20.50;58.30;;;;;;4955597;28;20055;-74
2023/06/28 08:29:44;;;;;;;2.85;1.60;;;20.50;58.30;;;;;;4955317;28;20035;-74
2023/06/28 08:32:09;;;;;;;2.33;1.63;;;20.60;58.40;;;;;;4938121;29;20377;-73
2023/06/28 08:34:35;;;;;;;2.78;1.67;;;20.50;58.30;;;;;;4955155;29;20031;-74
2023/06/28 08:37:03;;;;;;;2.53;1.80;;;20.60;58.30;;;;;;4953475;29;20134;-75
2023/06/28 08:39:29;;;;;;;3.03;1.67;;;20.60;58.30;;;;;;4955277;28;20374;-77
2023/06/28 08:41:55;;;;;;;2.72;1.85;;;20.60;58.30;;;;;;4937950;28;20070;-74
2023/06/28 08:44:25;;;;;;;2.65;1.63;;;20.60;58.30;;;;;;4937892;28;20066;-74
2023/06/28 08:46:53;;;;;;;3.47;1.75;;;20.60;58.30;;;;;;4954742;28;20062;-75
2023/06/28 08:49:19;;;;;;;2.58;1.70;;;20.60;58.30;;;;;;4937355;29;20381;-75
2023/06/28 08:51:46;;;;;;;2.67;1.90;;;20.60;58.30;;;;;;4955115;28;20057;-74
2023/06/28 08:54:14;;;;;;;2.38;1.50;;;20.60;58.40;;;;;;4954671;29;20031;-74
2023/06/28 08:56:41;;;;;;;2.00;1.48;;;20.60;58.30;;;;;;4938051;28;20097;-75
2023/06/28 08:59:08;;;;;;;2.00;1.65;;;20.70;58.40;;;;;;4955024;28;20365;-75
2023/06/28 09:01:35;;;;;;;2.55;1.70;;;20.70;58.40;;;;;;4954011;29;20482;-74
2023/06/28 09:04:04;;;;;;;1.98;1.55;;;20.70;58.40;;;;;;4953507;29;20633;-74
2023/06/28 09:06:29;;;;;;;2.45;1.75;;;20.70;58.40;;;;;;4938083;29;20031;-76
2023/06/28 09:08:56;;;;;;;2.47;1.73;;;20.70;58.30;;;;;;4938071;29;20118;-74
2023/06/28 09:11:22;;;;;;;2.78;1.67;;;20.70;58.30;;;;;;4953702;29;20027;-74
2023/06/28 09:13:48;;;;;;;2.63;1.77;;;20.70;58.40;;;;;;4938392;28;20035;-74
2023/06/28 09:16:14;;;;;;;3.60;1.77;;;20.70;58.30;;;;;;4954517;29;20067;-74
2023/06/28 09:18:40;;;;;;;2.55;1.73;;;20.70;58.30;;;;;;4954583;28;20066;-76
2023/06/28 09:21:06;;;;;;;2.75;1.70;;;20.70;58.30;;;;;;4937543;29;20040;-74
2023/06/28 09:23:34;;;;;;;3.05;1.92;;;20.70;58.30;;;;;;4956768;28;20038;-73
2023/06/28 09:26:00;;;;;;;3.85;2.13;;;20.70;58.40;;;;;;4958574;28;20055;-73
2023/06/28 09:28:36;;;;;;;2.50;1.75;;;20.80;58.30;;;;;;4958033;28;20031;-74
2023/06/28 09:31:06;;;;;;;2.38;1.67;;;20.80;58.40;;;;;;4958458;28;20043;-73
2023/06/28 09:33:32;;;;;;;3.35;1.73;;;20.80;58.30;;;;;;4941197;29;20031;-74
2023/06/28 09:35:59;;;;;;;2.67;1.80;;;20.80;58.30;;;;;;4957121;28;20023;-74
2023/06/28 09:38:26;;;;;;;2.63;1.70;;;20.80;58.40;;;;;;4956963;29;20105;-73
2023/06/28 09:41:00;;;;;;;2.75;1.70;;;20.80;58.30;;;;;;4940655;29;20392;-74
2023/06/28 09:43:33;;;;;;;2.75;1.50;;;20.80;58.40;;;;;;4958000;28;20050;-74
2023/06/28 09:46:13;;;;;;;2.22;1.60;;;20.80;58.40;;;;;;4957650;28;20058;-74
2023/06/28 09:48:43;;;;;;;2.05;1.63;;;20.80;58.40;;;;;;4940985;29;20038;-75
2023/06/28 09:51:10;;;;;;;2.70;1.80;;;20.90;58.30;;;;;;4956361;29;20094;-74
2023/06/28 09:53:49;;;;;;;3.38;1.63;;;20.90;58.30;;;;;;4956486;28;20028;-73
2023/06/28 09:56:16;;;;;;;2.65;1.60;;;20.90;58.40;;;;;;4957397;29;20047;-73
2023/06/28 09:58:45;;;;;;;2.30;1.40;;;20.90;58.30;;;;;;4956666;28;20034;-73
2023/06/28 10:01:14;;;;;;;2.38;1.65;;;20.90;58.30;;;;;;4957504;28;20484;-73
2023/06/28 10:03:41;;;;;;;2.25;1.65;;;21.00;58.30;;;;;;4957378;29;20085;-73
2023/06/28 10:06:09;;;;;;;2.45;1.60;;;21.00;58.20;;;;;;4955810;28;20031;-73
2023/06/28 10:08:35;;;;;;;2.30;1.70;;;21.00;58.20;;;;;;4956152;28;20023;-73
2023/06/28 10:11:01;;;;;;;2.63;1.60;;;21.00;58.20;;;;;;4940313;28;20047;-73
2023/06/28 10:13:29;;;;;;;2.72;1.65;;;21.00;58.20;;;;;;4957375;28;20465;-73
2023/06/28 10:16:17;;;;;;;2.95;1.80;;;21.00;58.20;;;;;;4956106;29;20031;-73
2023/06/28 10:18:43;;;;;;;2.05;1.45;;;21.10;58.30;;;;;;4956371;29;20038;-73
2023/06/28 10:21:09;;;;;;;2.85;1.60;;;21.10;58.20;;;;;;4956034;29;20035;-73
2023/06/28 10:23:38;;;;;;;2.22;1.50;;;21.10;58.20;;;;;;4957777;28;20035;-73
2023/06/28 10:26:05;;;;;;;2.97;1.60;;;21.10;58.20;;;;;;4955819;29;20138;-73
2023/06/28 10:28:33;;;;;;;2.55;1.50;;;21.20;58.20;;;;;;4956297;28;20031;-73
2023/06/28 10:31:00;;;;;;;2.58;1.70;;;21.20;58.20;;;;;;4955486;28;20035;-73
2023/06/28 10:33:31;;;;;;;2.97;1.85;;;21.20;58.20;;;;;;4955440;28;20027;-73
2023/06/28 10:36:00;;;;;;;3.75;1.90;;;21.20;58.20;;;;;;4956699;28;20102;-73
2023/06/28 10:38:31;;;;;;;2.17;1.58;;;21.30;58.20;;;;;;4939690;29;20483;-72
2023/06/28 10:40:57;;;;;;;2.53;1.80;;;21.30;58.20;;;;;;4957063;28;20062;-72
2023/06/28 10:43:25;;;;;;;2.13;1.60;;;21.30;58.10;;;;;;4957180;28;20054;-73
2023/06/28 10:45:52;;;;;;;1.60;1.50;;;21.40;58.30;;;;;;4955436;29;20058;-75
2023/06/28 10:48:22;;;;;;;2.53;1.55;;;21.40;58.20;;;;;;4956524;28;20476;-73
2023/06/28 10:50:50;;;;;;;2.58;1.80;;;21.40;58.20;;;;;;4955793;29;20043;-73
2023/06/28 10:53:25;;;;;;;2.38;1.67;;;21.40;58.20;;;;;;4955634;29;20027;-73
2023/06/28 10:56:07;;;;;;;2.90;1.80;;;21.50;58.20;;;;;;4955691;29;20103;-74
2023/06/28 10:58:41;;;;;;;2.42;1.45;;;21.50;58.20;;;;;;4955593;28;20031;-75
2023/06/28 11:01:11;;;;;;;2.10;1.65;;;21.50;58.10;;;;;;4939230;29;20032;-73
2023/06/28 11:03:44;;;;;;;2.83;1.70;;;21.60;58.00;;;;;;4939688;29;20098;-71
2023/06/28 11:06:12;;;;;;;2.28;1.83;;;21.60;58.00;;;;;;4955604;29;20035;-74
2023/06/28 11:08:40;;;;;;;3.45;1.80;;;21.70;58.00;;;;;;4955490;28;20042;-74
2023/06/28 11:11:20;;;;;;;2.42;1.55;;;21.70;57.90;;;;;;4939132;29;20038;-72
2023/06/28 11:13:48;;;;;;;2.47;1.60;;;21.80;58.00;;;;;;4955402;28;20388;-74
2023/06/28 11:16:41;;;;;;;3.28;1.65;;;21.80;57.80;;;;;;4955109;29;20027;-75
2023/06/28 11:19:14;;;;;;;2.65;1.60;;;21.90;57.90;;;;;;4956450;28;20039;-74
2023/06/28 11:21:40;;;;;;;2.28;1.70;;;21.90;57.70;;;;;;4954802;29;20435;-74
2023/06/28 11:24:06;;;;;;;2.05;1.60;;;22.00;57.60;;;;;;4939553;29;20043;-74
2023/06/28 11:26:37;;;;;;;2.25;1.67;;;22.00;57.60;;;;;;4955215;29;20035;-74
2023/06/28 11:29:18;;;;;;;2.47;1.60;;;22.10;57.70;;;;;;4954985;29;20380;-73
2023/06/28 11:31:51;;;;;;;2.95;1.75;;;22.10;57.60;;;;;;4954468;29;20035;-73
2023/06/28 11:34:20;;;;;;;2.78;1.65;;;22.20;57.50;;;;;;4939531;28;20035;-73
2023/06/28 11:36:47;;;;;;;2.60;1.77;;;22.30;57.50;;;;;;4955153;29;20043;-74
2023/06/28 11:39:20;;;;;;;2.88;1.60;;;22.30;57.50;;;;;;4956000;28;20464;-74
2023/06/28 11:41:49;;;;;;;2.17;1.60;;;22.40;57.50;;;;;;4956655;29;20054;-73
2023/06/28 11:44:17;;;;;;;2.70;1.80;;;22.40;57.50;;;;;;4954582;28;20031;-74
2023/06/28 11:46:46;;;;;;;2.50;1.65;;;22.50;57.50;;;;;;4953375;28;20054;-74
2023/06/28 11:49:13;;;;;;;3.47;1.88;;;22.50;57.40;;;;;;4955089;29;20069;-74
2023/06/28 11:51:42;;;;;;;2.45;1.65;;;22.60;57.40;;;;;;4955985;28;20035;-74
2023/06/28 11:54:10;;;;;;;2.85;1.38;;;22.70;57.40;;;;;;4954284;29;20160;-74
2023/06/28 11:56:46;;;;;;;2.95;1.88;;;22.70;57.30;;;;;;4954637;29;20031;-74
2023/06/28 11:59:17;;;;;;;2.58;1.60;;;22.80;57.40;;;;;;4955383;29;20082;-73
2023/06/28 12:01:47;;;;;;;2.47;1.70;;;22.90;57.30;;;;;;4955280;28;20043;-74
2023/06/28 12:04:18;;;;;;;2.05;1.55;;;22.90;57.10;;;;;;4956165;28;20038;-74
2023/06/28 12:06:45;;;;;;;2.00;1.60;;;23.00;57.10;;;;;;4954236;28;20037;-74
2023/06/28 12:09:24;;;;;;;2.60;1.58;;;23.00;56.90;;;;;;4954047;29;20055;-74
2023/06/28 12:11:57;;;;;;;2.42;1.88;;;23.10;57.00;;;;;;4954629;29;20031;-74
2023/06/28 12:14:27;;;;;;;2.17;1.77;;;23.20;56.90;;;;;;4954882;29;20106;-74
2023/06/28 12:16:54;;;;;;;2.30;1.67;;;23.20;56.70;;;;;;4955728;28;20038;-73
2023/06/28 12:19:24;;;;;;;2.15;1.65;;;23.30;56.70;;;;;;4938459;28;20031;-74
2023/06/28 12:21:53;;;;;;;1.95;1.45;;;23.30;56.60;;;;;;4954930;28;20059;-74
2023/06/28 12:24:24;;;;;;;2.30;1.75;;;23.40;56.60;;;;;;4953974;29;20436;-74
2023/06/28 12:26:51;;;;;;;2.00;1.63;;;23.40;56.50;;;;;;4955699;28;20027;-74
2023/06/28 12:29:19;;;;;;;2.05;1.55;;;23.50;56.50;;;;;;4954880;29;20039;-74
2023/06/28 12:31:47;;;;;;;2.60;1.80;;;23.50;56.50;;;;;;4954023;28;20027;-74
2023/06/28 12:34:26;;;;;;;2.65;1.75;;;23.50;56.40;;;;;;4938816;29;20028;-73
2023/06/28 12:36:55;;;;;;;2.30;1.58;;;23.60;56.40;;;;;;4954843;28;20485;-74
2023/06/28 12:39:26;;;;;;;1.92;1.35;;;23.60;56.30;;;;;;4953877;29;20066;-74
2023/06/28 12:42:01;;;;;;;2.80;1.73;;;23.60;56.30;;;;;;4954047;29;20038;-74
2023/06/28 12:44:28;;;;;;;3.45;1.73;;;23.70;56.30;;;;;;4954889;28;20031;-73
2023/06/28 12:46:54;;;;;;;2.20;1.58;;;23.80;56.20;;;;;;4953562;28;20039;-74
2023/06/28 12:49:21;;;;;;;2.10;1.70;;;23.80;56.10;;;;;;4937765;29;20533;-74